Time;durP1;ratioP1;P1;durP2;ratioP2;P2;SDS_P1;SDS_P2;PMS_P1;PMS_P2;Temp;Humidity;BMP_temperature;BMP_pressure;BME280_temperature;BME280_humidity;BME280_pressure;Samples;Min_cycle;Max_cycle;Signal;HPM_P1;HPM_P2
2022/03/24 00:00:37;;;;;;;29.87;13.53;;;4.70;95.20;;;;;;5051831;28;20449;-78
2022/03/24 00:03:03;;;;;;;30.07;14.50;;;4.70;95.00;;;;;;5050368;28;20453;-78
2022/03/24 00:05:30;;;;;;;32.97;14.40;;;4.60;94.80;;;;;;5036636;22;21034;-89
2022/03/24 00:07:55;;;;;;;29.00;13.47;;;4.60;95.30;;;;;;5009873;28;20491;-89
2022/03/24 00:10:21;;;;;;;27.80;14.20;;;4.60;95.50;;;;;;5010634;28;20558;-88
2022/03/24 00:12:46;;;;;;;29.83;14.60;;;4.60;95.60;;;;;;5011807;28;20170;-89
2022/03/24 00:15:12;;;;;;;33.87;15.43;;;4.60;95.50;;;;;;5009782;28;20201;-87
2022/03/24 00:17:38;;;;;;;33.03;12.53;;;4.60;95.70;;;;;;5012471;28;20174;-86
2022/03/24 00:20:04;;;;;;;26.90;13.07;;;4.50;95.70;;;;;;5009293;28;20785;-88
2022/03/24 00:22:30;;;;;;;35.77;15.80;;;4.50;95.70;;;;;;5009625;28;20184;-89
2022/03/24 00:24:56;;;;;;;26.80;13.90;;;4.50;95.80;;;;;;5013863;28;20474;-89
2022/03/24 00:27:21;;;;;;;31.53;13.77;;;4.50;96.00;;;;;;5028676;28;20176;-90
2022/03/24 00:29:47;;;;;;;40.17;14.47;;;4.40;96.20;;;;;;5028285;28;20494;-89
2022/03/24 00:32:13;;;;;;;34.30;15.40;;;4.30;96.20;;;;;;5029958;28;20177;-88
2022/03/24 00:34:39;;;;;;;36.23;14.47;;;4.30;96.50;;;;;;5015053;28;20675;-89
2022/03/24 00:37:05;;;;;;;27.13;12.63;;;4.30;96.50;;;;;;5008890;28;20455;-88
2022/03/24 00:39:34;;;;;;;29.80;13.90;;;4.20;96.60;;;;;;5008668;28;20426;-89
2022/03/24 00:42:07;;;;;;;36.00;13.77;;;4.20;96.60;;;;;;5008788;28;20850;-90
2022/03/24 00:44:33;;;;;;;27.03;13.20;;;4.10;96.60;;;;;;5007826;28;20448;-88
2022/03/24 00:46:58;;;;;;;33.70;13.77;;;4.10;96.70;;;;;;5008361;28;20428;-91
2022/03/24 00:49:25;;;;;;;26.53;13.23;;;4.00;97.00;;;;;;5008218;28;20439;-89
2022/03/24 00:51:50;;;;;;;26.90;13.10;;;3.90;97.20;;;;;;5008200;28;20169;-89
2022/03/24 00:54:18;;;;;;;28.07;13.10;;;3.90;97.30;;;;;;5008020;28;20474;-89
2022/03/24 00:56:46;;;;;;;34.37;13.90;;;3.80;97.30;;;;;;5008201;28;20184;-89
2022/03/24 00:59:12;;;;;;;37.07;14.40;;;3.80;97.30;;;;;;5009552;28;20416;-91
2022/03/24 01:01:39;;;;;;;30.10;14.50;;;3.70;97.30;;;;;;5008249;28;20420;-88
2022/03/24 01:04:14;;;;;;;31.10;12.87;;;3.60;97.30;;;;;;5008067;28;20447;-89
2022/03/24 01:06:40;;;;;;;37.20;14.77;;;3.60;97.30;;;;;;5010199;28;20466;-85
2022/03/24 01:09:06;;;;;;;33.13;13.63;;;3.50;97.30;;;;;;5008510;28;20416;-89
2022/03/24 01:11:32;;;;;;;30.17;13.87;;;3.50;97.30;;;;;;5008216;28;20416;-89
2022/03/24 01:13:58;;;;;;;39.80;15.57;;;3.40;97.30;;;;;;5008149;28;20173;-89
2022/03/24 01:16:24;;;;;;;35.60;15.07;;;3.40;97.30;;;;;;5008466;28;20418;-89
2022/03/24 01:18:50;;;;;;;33.53;14.03;;;3.30;97.30;;;;;;5008768;28;20420;-89
2022/03/24 01:21:16;;;;;;;34.53;14.73;;;3.30;97.30;;;;;;5008144;28;20175;-86
2022/03/24 01:23:44;;;;;;;35.23;15.53;;;3.30;97.30;;;;;;5009505;28;20404;-89
2022/03/24 01:26:11;;;;;;;32.17;14.27;;;3.30;97.30;;;;;;5007753;28;20178;-89
2022/03/24 01:28:37;;;;;;;38.87;16.17;;;3.30;97.30;;;;;;5009401;28;20964;-90
2022/03/24 01:31:03;;;;;;;43.30;15.80;;;3.20;97.30;;;;;;5007355;28;20511;-89
2022/03/24 01:33:28;;;;;;;32.30;15.47;;;3.20;97.30;;;;;;5008154;28;20424;-89
2022/03/24 01:35:54;;;;;;;31.87;13.77;;;3.20;97.30;;;;;;5007797;28;20197;-90
2022/03/24 01:38:21;;;;;;;37.20;14.90;;;3.20;97.30;;;;;;5008049;28;20260;-89
2022/03/24 01:40:47;;;;;;;29.83;14.10;;;3.10;97.30;;;;;;5007702;28;20233;-89
2022/03/24 01:43:12;;;;;;;31.03;13.30;;;3.10;97.30;;;;;;5008075;28;20455;-89
2022/03/24 01:45:38;;;;;;;33.20;13.60;;;3.10;97.30;;;;;;5008447;28;20255;-90
2022/03/24 01:48:08;;;;;;;31.50;15.00;;;3.10;97.30;;;;;;5009460;28;20181;-87
2022/03/24 01:50:34;;;;;;;34.37;14.27;;;3.00;97.30;;;;;;5007715;28;20696;-89
2022/03/24 01:53:00;;;;;;;34.83;15.87;;;3.00;97.30;;;;;;5007921;28;20432;-90
2022/03/24 01:55:25;;;;;;;32.17;14.67;;;2.90;97.30;;;;;;5007907;28;20571;-89
2022/03/24 01:57:52;;;;;;;38.83;14.10;;;2.80;97.30;;;;;;5008037;28;20319;-89
2022/03/24 02:00:17;;;;;;;44.63;15.00;;;2.80;97.30;;;;;;5008012;28;20641;-90
2022/03/24 02:02:44;;;;;;;38.63;15.73;;;2.70;97.30;;;;;;5009166;28;20422;-87
2022/03/24 02:05:10;;;;;;;34.70;14.57;;;2.70;97.30;;;;;;5007673;28;20324;-89
2022/03/24 02:07:36;;;;;;;39.43;14.70;;;2.70;97.30;;;;;;5008435;28;20432;-89
2022/03/24 02:10:05;;;;;;;38.90;16.27;;;2.60;97.30;;;;;;5007712;28;20494;-90
2022/03/24 02:12:33;;;;;;;38.37;15.57;;;2.60;97.30;;;;;;5007761;28;20420;-89
2022/03/24 02:14:59;;;;;;;29.40;13.77;;;2.60;97.30;;;;;;5007633;28;20448;-89
2022/03/24 02:17:29;;;;;;;39.50;15.10;;;2.60;97.30;;;;;;5011402;28;20440;-89
2022/03/24 02:19:57;;;;;;;34.83;13.63;;;2.60;97.30;;;;;;5011120;28;20452;-89
2022/03/24 02:22:23;;;;;;;33.40;14.53;;;2.50;97.30;;;;;;5019362;28;20733;-88
2022/03/24 02:24:49;;;;;;;32.47;14.83;;;2.50;97.30;;;;;;5031991;28;20534;-90
2022/03/24 02:27:14;;;;;;;36.27;14.20;;;2.40;97.30;;;;;;5031234;28;20186;-89
2022/03/24 02:29:40;;;;;;;33.00;14.47;;;2.40;97.30;;;;;;5030516;28;20192;-89
2022/03/24 02:32:08;;;;;;;35.77;14.23;;;2.40;97.30;;;;;;5031939;28;20191;-89
2022/03/24 02:34:37;;;;;;;35.77;14.10;;;2.30;97.30;;;;;;5030557;28;20435;-90
2022/03/24 02:37:07;;;;;;;27.80;13.23;;;2.30;97.30;;;;;;5030621;28;20422;-90
2022/03/24 02:39:32;;;;;;;33.27;15.10;;;2.20;97.30;;;;;;5030421;28;20426;-89
2022/03/24 02:41:59;;;;;;;38.70;14.63;;;2.20;97.30;;;;;;5030281;28;20426;-89
2022/03/24 02:44:27;;;;;;;32.63;14.13;;;2.20;97.30;;;;;;5031692;28;20439;-89
2022/03/24 02:46:54;;;;;;;34.33;13.87;;;2.10;97.30;;;;;;5030701;28;20426;-90
2022/03/24 02:49:24;;;;;;;36.40;14.20;;;2.10;97.30;;;;;;5030425;28;20454;-90
2022/03/24 02:51:50;;;;;;;41.00;16.60;;;2.10;97.30;;;;;;5030583;28;20995;-89
2022/03/24 02:54:17;;;;;;;31.17;13.53;;;2.00;97.30;;;;;;5030487;28;20435;-89
2022/03/24 02:56:42;;;;;;;33.50;13.93;;;2.00;97.30;;;;;;5030575;28;20491;-90
2022/03/24 02:59:09;;;;;;;41.87;15.57;;;2.00;97.30;;;;;;5020602;28;20514;-90
2022/03/24 03:01:35;;;;;;;38.47;15.20;;;2.00;97.30;;;;;;5010118;28;20216;-89
2022/03/24 03:04:01;;;;;;;33.50;13.83;;;2.00;97.30;;;;;;5010009;28;20528;-91
2022/03/24 03:06:27;;;;;;;34.83;13.63;;;2.00;97.30;;;;;;5010456;28;20805;-89
2022/03/24 03:08:52;;;;;;;36.40;14.83;;;2.00;97.30;;;;;;5010539;28;20526;-89
2022/03/24 03:11:22;;;;;;;35.00;14.33;;;2.00;97.30;;;;;;5009740;28;20185;-89
2022/03/24 03:13:49;;;;;;;34.93;13.80;;;2.00;97.30;;;;;;5009998;28;20185;-90
2022/03/24 03:16:15;;;;;;;34.13;14.27;;;2.00;97.30;;;;;;5010354;28;20420;-89
2022/03/24 03:18:44;;;;;;;32.73;13.67;;;2.00;97.30;;;;;;5010361;28;20478;-89
2022/03/24 03:21:11;;;;;;;36.73;15.53;;;2.00;97.30;;;;;;5010275;28;20424;-89
2022/03/24 03:23:40;;;;;;;35.43;13.23;;;2.00;97.30;;;;;;5030104;28;20411;-90
2022/03/24 03:26:06;;;;;;;37.23;14.40;;;2.00;97.30;;;;;;5013187;28;20481;-89
2022/03/24 03:28:32;;;;;;;34.27;14.33;;;1.90;97.30;;;;;;5009989;28;20500;-89
2022/03/24 03:30:57;;;;;;;33.90;15.20;;;1.90;97.30;;;;;;5010365;28;20473;-88
2022/03/24 03:33:23;;;;;;;37.20;15.07;;;1.80;97.30;;;;;;5009879;28;20427;-89
2022/03/24 03:35:50;;;;;;;38.47;13.73;;;1.80;97.30;;;;;;5009828;28;20228;-89
2022/03/24 03:38:16;;;;;;;35.73;14.03;;;1.90;97.30;;;;;;5009714;28;20907;-89
2022/03/24 03:40:41;;;;;;;37.23;14.70;;;1.90;97.30;;;;;;5009919;28;20852;-89
2022/03/24 03:43:10;;;;;;;36.50;14.30;;;1.90;97.30;;;;;;5009778;28;20474;-89
2022/03/24 03:45:36;;;;;;;42.00;14.83;;;1.90;97.30;;;;;;5009769;28;20680;-90
2022/03/24 03:48:02;;;;;;;32.77;13.47;;;1.80;97.30;;;;;;5010391;28;20459;-89
2022/03/24 03:50:28;;;;;;;35.03;15.20;;;1.80;97.30;;;;;;5010895;28;20597;-89
2022/03/24 03:52:54;;;;;;;35.20;14.87;;;1.70;97.30;;;;;;5009387;28;21046;-89
2022/03/24 03:55:20;;;;;;;39.87;14.70;;;1.60;97.30;;;;;;5009376;28;20526;-89
2022/03/24 03:57:46;;;;;;;39.87;14.97;;;1.60;97.30;;;;;;5009245;28;20239;-89
2022/03/24 04:02:57;;;;;;;42.70;15.70;;;1.60;97.30;;;;;;5010666;28;20739;-89
2022/03/24 04:05:25;;;;;;;35.33;13.20;;;1.50;97.30;;;;;;5008915;28;20478;-91
2022/03/24 04:07:51;;;;;;;35.33;14.63;;;1.50;97.30;;;;;;5009383;28;20416;-89
2022/03/24 04:10:17;;;;;;;39.97;15.33;;;1.50;97.30;;;;;;5009197;28;20455;-89
2022/03/24 04:12:43;;;;;;;37.33;15.20;;;1.50;97.30;;;;;;5008840;28;20451;-90
2022/03/24 04:15:10;;;;;;;36.17;15.30;;;1.50;97.30;;;;;;5009162;28;20436;-89
2022/03/24 04:17:35;;;;;;;42.77;15.47;;;1.40;97.30;;;;;;5009042;28;20173;-89
2022/03/24 04:20:01;;;;;;;31.00;15.37;;;1.40;97.30;;;;;;5008920;28;20444;-88
2022/03/24 04:22:26;;;;;;;37.10;16.50;;;1.30;97.30;;;;;;5008952;28;20182;-89
2022/03/24 04:24:52;;;;;;;38.77;15.57;;;1.30;97.30;;;;;;5008804;28;20193;-89
2022/03/24 04:27:18;;;;;;;41.10;16.03;;;1.30;97.30;;;;;;5008817;28;20198;-89
2022/03/24 04:29:44;;;;;;;37.17;15.70;;;1.30;97.30;;;;;;5005471;28;20316;-86
2022/03/24 04:32:10;;;;;;;47.17;16.13;;;1.30;97.30;;;;;;5008130;28;20427;-88
2022/03/24 04:34:36;;;;;;;39.67;16.37;;;1.30;97.30;;;;;;5000460;28;20335;-86
2022/03/24 04:37:02;;;;;;;38.20;15.77;;;1.30;97.30;;;;;;5006415;28;20446;-89
2022/03/24 04:39:29;;;;;;;50.73;18.93;;;1.20;97.30;;;;;;4989477;28;20879;-88
2022/03/24 04:41:55;;;;;;;42.63;16.93;;;1.20;97.30;;;;;;4988640;28;21055;-87
2022/03/24 04:44:22;;;;;;;34.83;15.27;;;1.20;97.30;;;;;;4988777;28;20448;-86
2022/03/24 04:46:48;;;;;;;31.93;15.00;;;1.10;97.30;;;;;;4988993;28;20193;-90
2022/03/24 04:49:14;;;;;;;38.17;15.57;;;1.10;97.30;;;;;;4988971;28;20622;-87
2022/03/24 04:51:39;;;;;;;41.70;16.90;;;1.10;97.30;;;;;;4988870;28;20550;-88
2022/03/24 04:54:06;;;;;;;58.10;25.07;;;1.10;97.30;;;;;;4988587;28;20439;-88
2022/03/24 04:56:31;;;;;;;58.23;21.20;;;1.10;97.30;;;;;;4989094;28;20181;-88
2022/03/24 04:58:57;;;;;;;37.70;18.03;;;1.10;97.30;;;;;;4989213;28;20421;-90
2022/03/24 05:01:22;;;;;;;39.60;17.17;;;1.10;97.30;;;;;;4989313;28;20317;-88
2022/03/24 05:03:47;;;;;;;37.73;16.17;;;1.00;97.30;;;;;;4988803;28;20186;-88
2022/03/24 05:06:14;;;;;;;52.53;17.07;;;1.10;97.30;;;;;;5005871;28;20200;-87
2022/03/24 05:08:39;;;;;;;43.10;18.40;;;1.10;97.30;;;;;;4990003;28;20192;-88
2022/03/24 05:11:05;;;;;;;35.40;14.63;;;1.10;97.30;;;;;;4989363;28;20469;-88
2022/03/24 05:13:30;;;;;;;34.90;14.40;;;1.10;97.30;;;;;;4989520;28;20233;-88
2022/03/24 05:15:56;;;;;;;35.23;16.30;;;1.10;97.30;;;;;;4990988;28;20665;-89
2022/03/24 05:18:24;;;;;;;33.73;14.80;;;1.10;97.30;;;;;;4990579;28;20256;-86
2022/03/24 05:20:50;;;;;;;32.10;13.13;;;1.10;97.30;;;;;;5006062;28;20196;-87
2022/03/24 05:23:15;;;;;;;31.20;13.70;;;1.10;97.30;;;;;;5020026;28;20805;-88
2022/03/24 05:25:41;;;;;;;36.77;14.40;;;1.10;97.30;;;;;;5014914;28;20444;-88
2022/03/24 05:28:07;;;;;;;41.23;15.37;;;1.00;97.30;;;;;;5008675;28;20212;-89
2022/03/24 05:30:33;;;;;;;46.87;16.17;;;1.00;97.30;;;;;;5008419;28;20243;-88
2022/03/24 05:32:58;;;;;;;32.47;14.57;;;1.00;97.30;;;;;;5009836;28;20427;-88
2022/03/24 05:35:24;;;;;;;44.07;15.27;;;1.00;97.30;;;;;;5008583;28;20269;-88
2022/03/24 05:37:50;;;;;;;40.17;16.20;;;1.00;97.30;;;;;;5008528;28;20193;-88
2022/03/24 05:40:15;;;;;;;42.60;16.33;;;1.00;97.30;;;;;;5009401;28;20184;-90
2022/03/24 05:42:41;;;;;;;41.83;17.47;;;1.00;97.30;;;;;;5008377;28;20255;-89
2022/03/24 05:45:07;;;;;;;41.17;17.30;;;1.00;97.30;;;;;;5008149;28;20212;-89
2022/03/24 05:47:32;;;;;;;42.60;17.47;;;1.00;97.30;;;;;;5010109;28;20169;-89
2022/03/24 05:49:58;;;;;;;50.23;16.07;;;1.00;97.30;;;;;;5009770;28;21130;-91
2022/03/24 05:52:23;;;;;;;35.33;15.03;;;1.10;97.30;;;;;;5012631;28;20187;-89
2022/03/24 05:54:49;;;;;;;40.30;15.30;;;1.10;97.30;;;;;;5011853;28;20205;-90
2022/03/24 05:57:15;;;;;;;38.10;15.57;;;1.10;97.30;;;;;;5012301;28;20177;-88
2022/03/24 05:59:40;;;;;;;44.83;16.70;;;1.20;97.30;;;;;;5012108;28;20185;-88
2022/03/24 06:02:06;;;;;;;41.60;15.67;;;1.30;97.30;;;;;;5012423;28;20177;-86
2022/03/24 06:04:32;;;;;;;43.93;16.33;;;1.30;97.30;;;;;;5012187;28;20240;-88
2022/03/24 06:06:58;;;;;;;33.27;16.03;;;1.40;97.30;;;;;;5012222;28;20455;-89
2022/03/24 06:09:23;;;;;;;44.17;16.60;;;1.40;97.30;;;;;;5011731;28;20228;-89
2022/03/24 06:11:50;;;;;;;38.43;15.27;;;1.50;97.30;;;;;;5012194;28;20475;-89
2022/03/24 06:14:16;;;;;;;45.27;16.20;;;1.50;97.30;;;;;;5011635;28;20197;-88
2022/03/24 06:16:41;;;;;;;38.30;15.10;;;1.60;97.30;;;;;;5011656;28;20426;-89
2022/03/24 06:19:09;;;;;;;41.60;16.73;;;1.70;97.30;;;;;;5011696;28;20173;-89
2022/03/24 06:21:36;;;;;;;37.40;15.23;;;1.80;97.30;;;;;;5012092;28;20176;-89
2022/03/24 06:24:02;;;;;;;42.00;16.93;;;1.90;97.30;;;;;;5011488;28;20486;-88
2022/03/24 06:26:29;;;;;;;37.97;17.93;;;2.00;97.30;;;;;;5011948;28;20411;-89
2022/03/24 06:28:54;;;;;;;44.53;16.93;;;2.10;97.30;;;;;;5012833;28;20795;-89
2022/03/24 06:31:20;;;;;;;34.80;14.30;;;2.20;97.30;;;;;;5011555;28;20610;-88
2022/03/24 06:33:46;;;;;;;44.10;16.73;;;2.20;97.30;;;;;;5011151;28;20188;-89
2022/03/24 06:36:11;;;;;;;48.53;16.30;;;2.40;97.30;;;;;;5011489;28;20227;-88
2022/03/24 06:38:37;;;;;;;45.50;17.10;;;2.50;97.30;;;;;;5011116;28;20177;-89
2022/03/24 06:41:08;;;;;;;50.80;19.80;;;2.60;97.30;;;;;;5011510;28;20192;-89
2022/03/24 06:43:36;;;;;;;75.17;24.50;;;2.70;97.30;;;;;;5011225;28;20510;-89
2022/03/24 06:46:02;;;;;;;52.90;20.40;;;2.90;97.30;;;;;;5011131;28;20436;-89
2022/03/24 06:48:28;;;;;;;42.17;17.23;;;3.00;97.30;;;;;;5011046;28;20446;-89
2022/03/24 06:50:53;;;;;;;48.10;18.57;;;3.20;97.30;;;;;;5011180;28;20970;-88
2022/03/24 06:53:19;;;;;;;56.90;19.53;;;3.30;97.30;;;;;;5009885;28;20690;-88
2022/03/24 06:55:45;;;;;;;45.60;18.63;;;3.50;97.30;;;;;;5010454;28;20200;-89
2022/03/24 06:58:10;;;;;;;48.00;17.10;;;3.70;97.30;;;;;;5011479;28;20248;-88
2022/03/24 07:00:36;;;;;;;40.33;16.10;;;3.80;97.30;;;;;;5011237;28;20240;-89
2022/03/24 07:03:01;;;;;;;44.07;17.13;;;4.00;97.30;;;;;;5009180;28;20185;-89
2022/03/24 07:05:28;;;;;;;46.10;17.53;;;4.20;97.30;;;;;;5005044;28;20489;-89
2022/03/24 07:07:54;;;;;;;41.07;17.80;;;4.40;97.30;;;;;;5010259;28;20181;-89
2022/03/24 07:10:20;;;;;;;39.97;17.63;;;4.50;97.30;;;;;;5005536;28;20460;-89
2022/03/24 07:12:48;;;;;;;48.80;19.43;;;4.70;97.30;;;;;;5009361;28;20789;-88
2022/03/24 07:15:14;;;;;;;50.83;20.50;;;4.90;97.30;;;;;;5006211;28;20442;-88
2022/03/24 07:17:40;;;;;;;52.57;18.17;;;5.10;97.30;;;;;;5002301;28;20416;-88
2022/03/24 07:20:06;;;;;;;47.10;20.53;;;5.20;97.30;;;;;;5010169;28;20454;-87
2022/03/24 07:22:33;;;;;;;48.47;19.23;;;5.30;97.30;;;;;;5004568;28;20816;-89
2022/03/24 07:24:59;;;;;;;56.70;19.93;;;5.50;96.80;;;;;;5000289;28;20451;-88
2022/03/24 07:27:24;;;;;;;50.53;20.63;;;5.60;96.00;;;;;;5005058;28;20424;-90
2022/03/24 07:29:49;;;;;;;51.57;21.53;;;5.70;95.30;;;;;;5003070;28;20208;-88
2022/03/24 07:32:16;;;;;;;55.47;19.63;;;5.80;94.40;;;;;;5003319;28;20182;-89
2022/03/24 07:34:41;;;;;;;52.40;19.53;;;5.90;94.20;;;;;;5009933;28;20292;-89
2022/03/24 07:37:07;;;;;;;52.77;18.70;;;6.00;93.70;;;;;;5010387;28;20555;-89
2022/03/24 07:39:33;;;;;;;47.57;20.63;;;6.20;93.60;;;;;;5012081;28;20242;-89
2022/03/24 07:41:59;;;;;;;51.53;21.87;;;6.40;93.60;;;;;;5011759;28;20503;-89
2022/03/24 07:44:25;;;;;;;54.03;22.20;;;6.60;93.10;;;;;;4992855;28;20266;-89
2022/03/24 07:46:50;;;;;;;53.00;21.73;;;6.80;93.50;;;;;;4990531;28;20185;-89
2022/03/24 07:49:16;;;;;;;53.17;21.67;;;6.90;92.60;;;;;;5007030;28;20421;-89
2022/03/24 07:51:42;;;;;;;57.80;21.97;;;7.10;92.10;;;;;;4990337;28;20637;-89
2022/03/24 07:54:10;;;;;;;53.93;23.60;;;7.20;91.70;;;;;;4990566;28;20182;-89
2022/03/24 07:56:38;;;;;;;54.03;21.83;;;7.40;91.50;;;;;;4990355;28;20551;-89
2022/03/24 07:59:05;;;;;;;55.03;22.60;;;7.50;90.80;;;;;;4990823;28;20417;-89
2022/03/24 08:01:39;;;;;;;59.10;23.63;;;7.60;89.90;;;;;;4990464;28;20421;-90
2022/03/24 08:04:06;;;;;;;56.03;23.20;;;7.70;89.80;;;;;;4989864;28;20955;-89
2022/03/24 08:06:33;;;;;;;49.47;21.90;;;7.90;89.90;;;;;;4990839;28;21317;-89
2022/03/24 08:08:59;;;;;;;54.50;21.93;;;8.10;90.40;;;;;;5010352;28;20667;-89
2022/03/24 08:11:25;;;;;;;59.50;22.67;;;8.30;89.90;;;;;;5009681;28;20502;-89
2022/03/24 08:13:53;;;;;;;54.00;21.93;;;8.40;88.10;;;;;;5008859;28;20525;-89
2022/03/24 08:16:25;;;;;;;49.80;20.67;;;8.40;87.40;;;;;;5009727;28;20485;-89
2022/03/24 08:18:53;;;;;;;56.97;22.93;;;8.50;87.60;;;;;;5010074;28;20424;-89
2022/03/24 08:21:19;;;;;;;48.30;21.90;;;8.60;87.80;;;;;;5009136;28;20950;-89
2022/03/24 08:23:45;;;;;;;59.30;23.10;;;8.80;87.40;;;;;;5028667;28;20428;-91
2022/03/24 08:26:10;;;;;;;54.53;21.87;;;8.90;87.10;;;;;;5011503;28;20220;-90
2022/03/24 08:28:36;;;;;;;50.40;21.83;;;9.00;86.90;;;;;;5006209;28;20638;-89
2022/03/24 08:31:02;;;;;;;57.77;23.70;;;9.00;86.00;;;;;;5005547;28;20201;-89
2022/03/24 08:33:28;;;;;;;55.60;22.27;;;9.10;86.00;;;;;;5006082;28;20173;-89
2022/03/24 08:35:54;;;;;;;54.60;22.27;;;9.10;86.00;;;;;;5002634;28;20335;-88
2022/03/24 08:38:19;;;;;;;57.50;21.73;;;9.30;86.30;;;;;;4997191;28;20431;-90
2022/03/24 08:40:45;;;;;;;50.50;22.17;;;9.50;86.00;;;;;;4991204;28;20181;-89
2022/03/24 08:43:11;;;;;;;61.57;23.90;;;9.70;85.60;;;;;;4997895;28;20188;-90
2022/03/24 08:45:37;;;;;;;52.43;22.83;;;9.90;85.70;;;;;;4999826;28;20696;-89
2022/03/24 08:48:05;;;;;;;67.73;26.20;;;10.20;85.00;;;;;;4988442;28;20188;-89
2022/03/24 08:50:32;;;;;;;55.97;22.70;;;10.30;84.20;;;;;;4989417;28;20460;-88
2022/03/24 08:52:58;;;;;;;54.00;22.43;;;10.40;84.00;;;;;;4988751;28;20429;-89
2022/03/24 08:55:23;;;;;;;51.20;25.10;;;10.50;83.00;;;;;;4989129;28;20448;-89
2022/03/24 08:57:49;;;;;;;54.80;23.90;;;10.50;82.70;;;;;;4998858;28;20846;-90
2022/03/24 09:00:17;;;;;;;61.73;24.47;;;10.50;82.50;;;;;;5010146;28;20592;-89
2022/03/24 09:02:50;;;;;;;53.57;21.33;;;10.60;82.60;;;;;;5002672;28;20369;-89
2022/03/24 09:05:17;;;;;;;55.00;23.40;;;10.70;82.10;;;;;;5007174;28;20484;-89
2022/03/24 09:07:42;;;;;;;55.20;22.87;;;10.80;81.80;;;;;;5000994;28;20428;-89
2022/03/24 09:10:10;;;;;;;57.67;23.17;;;11.00;81.30;;;;;;4994988;28;20751;-89
2022/03/24 09:12:40;;;;;;;55.80;23.70;;;11.00;80.90;;;;;;5000155;28;20177;-90
2022/03/24 09:15:08;;;;;;;51.00;23.37;;;11.20;80.60;;;;;;5004869;28;20443;-90
2022/03/24 09:17:35;;;;;;;51.33;22.77;;;11.40;79.80;;;;;;5008709;28;20829;-87
2022/03/24 09:20:03;;;;;;;56.33;23.50;;;11.50;79.00;;;;;;5008320;28;20427;-89
2022/03/24 09:22:29;;;;;;;52.80;23.63;;;11.60;78.90;;;;;;5017005;28;20411;-89
2022/03/24 09:24:55;;;;;;;50.30;22.00;;;11.70;79.10;;;;;;5020589;28;20789;-88
2022/03/24 09:27:21;;;;;;;55.37;23.67;;;11.90;78.10;;;;;;5007680;28;20950;-88
2022/03/24 09:29:49;;;;;;;52.80;21.73;;;12.00;77.60;;;;;;5007760;28;20455;-88
2022/03/24 09:32:16;;;;;;;50.83;21.80;;;12.10;77.50;;;;;;5005829;28;20173;-89
2022/03/24 09:34:42;;;;;;;55.23;22.67;;;12.20;77.50;;;;;;5008052;28;20494;-89
2022/03/24 09:37:08;;;;;;;56.77;24.23;;;12.40;77.20;;;;;;5009630;28;20412;-87
2022/03/24 09:39:34;;;;;;;53.00;23.20;;;12.50;77.60;;;;;;5008554;28;20513;-88
2022/03/24 09:42:00;;;;;;;56.50;23.77;;;12.70;77.70;;;;;;5007516;28;20911;-89
2022/03/24 09:44:27;;;;;;;52.83;22.90;;;12.80;77.70;;;;;;5007914;28;20452;-88
2022/03/24 09:46:53;;;;;;;51.47;23.00;;;13.00;78.70;;;;;;5008257;28;20223;-89
2022/03/24 09:49:18;;;;;;;61.50;24.80;;;13.10;78.30;;;;;;5008193;28;20451;-88
2022/03/24 09:51:45;;;;;;;50.80;24.20;;;13.30;77.60;;;;;;5008124;28;20648;-89
2022/03/24 09:54:12;;;;;;;54.47;24.93;;;13.40;78.10;;;;;;5007620;28;20748;-88
2022/03/24 09:56:40;;;;;;;50.80;23.10;;;13.60;77.60;;;;;;5008023;28;20420;-88
2022/03/24 09:59:09;;;;;;;53.77;23.53;;;13.70;77.40;;;;;;5007797;28;20419;-89
2022/03/24 10:01:36;;;;;;;54.43;25.03;;;13.70;77.20;;;;;;5007852;28;20421;-90
2022/03/24 10:04:10;;;;;;;59.60;24.00;;;13.70;76.20;;;;;;5007441;28;20444;-89
2022/03/24 10:06:41;;;;;;;54.43;22.50;;;13.60;76.50;;;;;;5007526;28;20711;-89
2022/03/24 10:09:08;;;;;;;54.00;23.90;;;13.70;76.30;;;;;;5007398;28;20420;-88
2022/03/24 10:11:35;;;;;;;55.00;25.63;;;13.90;76.00;;;;;;5007226;28;21000;-89
2022/03/24 10:14:02;;;;;;;51.67;23.23;;;14.00;76.60;;;;;;5007941;28;20946;-89
2022/03/24 10:16:34;;;;;;;51.37;23.73;;;14.10;77.10;;;;;;5007622;28;20643;-88
2022/03/24 10:19:05;;;;;;;66.07;23.03;;;14.20;76.40;;;;;;5007459;28;20950;-88
2022/03/24 10:21:32;;;;;;;50.47;22.90;;;14.30;75.90;;;;;;5009054;28;20463;-88
2022/03/24 10:24:05;;;;;;;50.27;22.77;;;14.40;75.80;;;;;;5028097;28;21232;-89
2022/03/24 10:27:13;;;;;;;52.47;23.90;;;14.40;76.00;;;;;;4988297;28;20421;-86
2022/03/24 10:29:39;;;;;;;51.50;23.50;;;14.50;75.40;;;;;;4987413;28;20472;-86
2022/03/24 10:32:11;;;;;;;55.80;24.27;;;14.50;74.60;;;;;;4987750;28;20553;-87
2022/03/24 10:34:39;;;;;;;55.17;23.27;;;14.60;74.60;;;;;;4987674;28;20448;-87
2022/03/24 10:37:13;;;;;;;63.07;23.20;;;14.60;75.10;;;;;;4988946;28;20570;-86
2022/03/24 10:39:54;;;;;;;50.10;23.97;;;14.80;75.70;;;;;;4991635;28;20559;-86
2022/03/24 10:42:20;;;;;;;60.10;25.47;;;14.80;76.30;;;;;;4991545;28;20421;-87
2022/03/24 10:45:09;;;;;;;52.87;22.83;;;14.80;75.90;;;;;;4991748;28;20619;-87
2022/03/24 10:47:56;;;;;;;61.17;24.23;;;14.80;76.50;;;;;;4993373;28;20862;-86
2022/03/24 10:50:25;;;;;;;55.60;24.93;;;14.60;76.20;;;;;;4991721;28;20456;-85
2022/03/24 10:52:51;;;;;;;64.70;24.80;;;14.60;76.90;;;;;;4994690;28;20818;-86
2022/03/24 10:55:35;;;;;;;47.67;23.60;;;14.90;78.30;;;;;;5011828;28;20487;-86
2022/03/24 10:58:04;;;;;;;64.80;24.60;;;15.10;77.70;;;;;;5010912;28;20424;-86
2022/03/24 11:00:31;;;;;;;58.87;25.97;;;15.20;76.40;;;;;;5010963;28;20435;-88
2022/03/24 11:02:57;;;;;;;48.53;24.17;;;15.20;76.80;;;;;;5010411;28;20424;-87
2022/03/24 11:05:22;;;;;;;65.10;25.70;;;15.30;77.80;;;;;;5010634;28;20476;-87
2022/03/24 11:07:52;;;;;;;54.60;25.47;;;15.40;76.90;;;;;;5007760;28;20467;-88
2022/03/24 11:10:18;;;;;;;48.00;23.40;;;15.50;76.00;;;;;;5011945;28;20598;-87
2022/03/24 11:12:44;;;;;;;51.00;24.00;;;15.40;76.10;;;;;;5010463;28;20421;-85
2022/03/24 11:15:10;;;;;;;53.60;24.20;;;15.50;76.80;;;;;;5007184;28;20209;-87
2022/03/24 11:17:39;;;;;;;49.17;24.23;;;15.60;76.10;;;;;;5004359;28;20413;-86
2022/03/24 11:20:07;;;;;;;49.87;22.60;;;15.60;76.50;;;;;;5007200;28;20421;-87
2022/03/24 11:22:58;;;;;;;49.40;23.10;;;15.70;76.10;;;;;;5026130;28;20929;-87
2022/03/24 11:25:26;;;;;;;54.43;22.50;;;16.00;76.70;;;;;;5030194;28;20586;-86
2022/03/24 11:27:53;;;;;;;48.80;23.10;;;16.20;75.20;;;;;;5030274;28;20418;-87
2022/03/24 11:30:20;;;;;;;53.10;24.20;;;16.20;75.30;;;;;;5030235;28;20565;-87
2022/03/24 11:32:49;;;;;;;51.53;25.43;;;16.30;75.90;;;;;;5030343;28;20666;-86
2022/03/24 11:35:16;;;;;;;49.40;24.30;;;16.50;76.20;;;;;;5031349;28;20510;-86
2022/03/24 11:37:42;;;;;;;49.70;24.23;;;16.60;74.10;;;;;;5026351;28;20898;-86
2022/03/24 11:40:12;;;;;;;59.67;25.93;;;16.70;74.80;;;;;;5009727;28;20524;-86
2022/03/24 11:42:48;;;;;;;46.10;22.70;;;16.90;75.60;;;;;;5009939;28;20177;-86
2022/03/24 11:45:20;;;;;;;52.57;23.07;;;17.10;74.70;;;;;;5009412;28;20470;-90
2022/03/24 11:47:54;;;;;;;46.27;22.10;;;17.20;73.10;;;;;;5010023;28;20424;-89
2022/03/24 11:50:47;;;;;;;48.60;21.03;;;17.30;71.90;;;;;;5009321;28;20459;-89
2022/03/24 11:53:36;;;;;;;51.57;22.90;;;17.50;71.80;;;;;;5009104;28;20929;-90
2022/03/24 11:56:02;;;;;;;45.17;22.23;;;17.60;70.40;;;;;;5008951;28;20503;-89
2022/03/24 11:58:30;;;;;;;42.07;20.77;;;17.50;71.60;;;;;;5011061;28;20436;-89
2022/03/24 12:00:56;;;;;;;56.93;22.70;;;17.60;71.20;;;;;;5009300;28;20181;-89
2022/03/24 12:03:42;;;;;;;45.63;20.20;;;17.70;70.10;;;;;;5009084;28;20482;-89
2022/03/24 12:06:09;;;;;;;40.50;20.90;;;17.80;68.50;;;;;;5009518;28;20572;-88
2022/03/24 12:08:51;;;;;;;40.37;19.70;;;17.80;70.20;;;;;;5011197;28;20435;-86
2022/03/24 12:11:51;;;;;;;47.07;21.60;;;18.00;70.20;;;;;;5024946;28;20816;-88
2022/03/24 12:14:32;;;;;;;48.57;22.87;;;18.30;71.00;;;;;;5011928;28;20449;-88
2022/03/24 12:17:07;;;;;;;46.40;21.47;;;18.50;68.40;;;;;;5010035;28;20416;-88
2022/03/24 12:19:32;;;;;;;39.03;20.40;;;18.50;67.50;;;;;;5008905;28;20466;-88
2022/03/24 12:21:59;;;;;;;38.87;20.73;;;18.60;65.40;;;;;;5011707;28;20972;-88
2022/03/24 12:24:34;;;;;;;47.30;22.80;;;18.80;67.30;;;;;;5005288;28;20204;-88
2022/03/24 12:27:05;;;;;;;43.20;21.27;;;19.10;68.50;;;;;;5003315;28;20455;-87
2022/03/24 12:29:31;;;;;;;44.20;21.90;;;19.40;68.20;;;;;;5001017;28;20462;-86
2022/03/24 12:31:59;;;;;;;36.20;19.40;;;19.60;66.10;;;;;;5001095;28;20424;-86
2022/03/24 12:34:44;;;;;;;38.70;19.37;;;19.70;66.40;;;;;;5000928;28;20193;-87
2022/03/24 12:37:25;;;;;;;39.73;19.77;;;19.80;65.00;;;;;;4999419;28;20745;-87